Time;durP1;ratioP1;P1;durP2;ratioP2;P2;SDS_P1;SDS_P2;PMS_P1;PMS_P2;Temp;Humidity;BMP_temperature;BMP_pressure;BME280_temperature;BME280_humidity;BME280_pressure;Samples;Min_cycle;Max_cycle;Signal;HPM_P1;HPM_P2
2023/02/05 00:00:50;;;;;;;4;1.6;;;;;;;-3.3;88.2;100360;;;;
2023/02/05 00:11:50;;;;;;;4;1.6;;;;;;;-3.3;87;100380;;;;
2023/02/05 00:21:50;;;;;;;4;1.6;;;;;;;-3.3;86.5;100390;;;;
2023/02/05 00:32:50;;;;;;;4.9;2.7;;;;;;;-3.3;86.4;100410;;;;
2023/02/05 00:43:50;;;;;;;4.9;2.7;;;;;;;-3.5;85.9;100420;;;;
2023/02/05 00:54:52;;;;;;;4.9;2.7;;;;;;;-3.7;85.7;100410;;;;
2023/02/05 01:04:50;;;;;;;2.1;1.6;;;;;;;-3.9;85.7;100420;;;;
2023/02/05 01:15:50;;;;;;;2.1;1.6;;;;;;;-3.9;86.1;100420;;;;
2023/02/05 01:26:52;;;;;;;2.1;1.6;;;;;;;-3.8;86.4;100410;;;;
2023/02/05 01:36:50;;;;;;;5;2.4;;;;;;;-3.7;86.9;100420;;;;
2023/02/05 01:46:50;;;;;;;5;2.4;;;;;;;-3.6;87.2;100430;;;;
2023/02/05 01:57:50;;;;;;;5;2.4;;;;;;;-3.5;87.2;100420;;;;
2023/02/05 02:07:50;;;;;;;4.4;2.7;;;;;;;-3.6;86.6;100420;;;;
2023/02/05 02:17:50;;;;;;;4.4;2.7;;;;;;;-3.8;86.1;100420;;;;
2023/02/05 02:28:50;;;;;;;4.6;1.9;;;;;;;-3.8;86.1;100430;;;;
2023/02/05 02:38:50;;;;;;;4.6;1.9;;;;;;;-3.8;85.8;100430;;;;
2023/02/05 02:49:50;;;;;;;4.6;1.9;;;;;;;-3.8;85.5;100430;;;;
2023/02/05 02:59:50;;;;;;;5.9;2.6;;;;;;;-3.7;85.7;100440;;;;
2023/02/05 03:10:50;;;;;;;5.9;2.6;;;;;;;-3.7;85.2;100450;;;;
2023/02/05 03:20:50;;;;;;;5.9;2.6;;;;;;;-3.7;84.7;100450;;;;
2023/02/05 03:31:50;;;;;;;6.5;3.2;;;;;;;-3.8;84.2;100450;;;;
2023/02/05 03:42:50;;;;;;;6.5;3.2;;;;;;;-3.9;84.2;100460;;;;
2023/02/05 03:53:50;;;;;;;6.5;3.2;;;;;;;-3.9;83.9;100450;;;;
2023/02/05 04:03:50;;;;;;;4.4;3.1;;;;;;;-3.9;83.4;100450;;;;
2023/02/05 04:14:50;;;;;;;4.4;3.1;;;;;;;-4.2;82.8;100440;;;;
2023/02/05 04:24:50;;;;;;;4.4;3.1;;;;;;;-4.5;83;100460;;;;
2023/02/05 04:35:50;;;;;;;5.2;2.6;;;;;;;-4.8;83.4;100460;;;;
2023/02/05 04:45:50;;;;;;;5.2;2.6;;;;;;;-5.1;83.7;100480;;;;
2023/02/05 04:56:50;;;;;;;5.2;2.6;;;;;;;-5.3;84.1;100480;;;;
2023/02/05 05:06:50;;;;;;;3.4;2.4;;;;;;;-5.5;84.4;100480;;;;
2023/02/05 05:17:50;;;;;;;3.4;2.4;;;;;;;-5.8;84.4;100490;;;;
2023/02/05 05:28:50;;;;;;;3.3;2.3;;;;;;;-6.1;84.3;100490;;;;
2023/02/05 05:38:50;;;;;;;3.3;2.3;;;;;;;-6.3;84.2;100500;;;;
2023/02/05 05:49:50;;;;;;;3.3;2.3;;;;;;;-6.6;84.1;100520;;;;
2023/02/05 05:59:50;;;;;;;3.3;2.1;;;;;;;-6.8;84.2;100540;;;;
2023/02/05 06:09:50;;;;;;;3.3;2.1;;;;;;;-7;84.4;100560;;;;
2023/02/05 06:20:50;;;;;;;3.3;2.1;;;;;;;-6.9;84.8;100580;;;;
2023/02/05 06:30:50;;;;;;;5.2;4;;;;;;;-6.7;85.2;100590;;;;
2023/02/05 06:41:50;;;;;;;5.2;4;;;;;;;-6.1;86;100600;;;;
2023/02/05 06:51:50;;;;;;;5.2;4;;;;;;;-5.7;86.1;100610;;;;
2023/02/05 07:02:50;;;;;;;11.4;6.3;;;;;;;-5;86;100610;;;;
2023/02/05 07:12:50;;;;;;;11.4;6.3;;;;;;;-4.6;84.6;100620;;;;
2023/02/05 07:23:50;;;;;;;11.4;6.3;;;;;;;-4.4;83.4;100640;;;;
2023/02/05 07:33:50;;;;;;;10.7;7.2;;;;;;;-4.2;82.3;100660;;;;
2023/02/05 07:44:50;;;;;;;10.7;7.2;;;;;;;-4.1;81.6;100670;;;;
2023/02/05 07:54:50;;;;;;;10.7;7.2;;;;;;;-4;81;100680;;;;
2023/02/05 08:05:50;;;;;;;15.4;7.4;;;;;;;-3.7;80.6;100680;;;;
2023/02/05 08:15:50;;;;;;;15.4;7.4;;;;;;;-3.4;79.4;100680;;;;
2023/02/05 08:26:50;;;;;;;9.9;4.7;;;;;;;-2.8;79.4;100670;;;;
2023/02/05 08:37:50;;;;;;;13.4;7.1;;;;;;;-2.3;77.3;100670;;;;
2023/02/05 08:48:50;;;;;;;13.4;7.1;;;;;;;-2.1;75.8;100680;;;;
2023/02/05 08:59:50;;;;;;;13.4;7.1;;;;;;;-2;74.2;100680;;;;
2023/02/05 09:10:50;;;;;;;12.5;6.5;;;;;;;-2;72.7;100700;;;;
2023/02/05 09:21:50;;;;;;;12.5;6.5;;;;;;;-1.9;74;100700;;;;
2023/02/05 09:32:50;;;;;;;12.5;6.5;;;;;;;-1.9;72.8;100710;;;;
2023/02/05 09:42:50;;;;;;;12.8;7.5;;;;;;;-2.1;72.9;100710;;;;
2023/02/05 09:53:50;;;;;;;12.8;7.5;;;;;;;-2.1;72.9;100700;;;;
2023/02/05 10:03:52;;;;;;;12.8;7.5;;;;;;;-2.3;72.2;100700;;;;
2023/02/05 10:14:50;;;;;;;9.5;5.6;;;;;;;-2.2;71.7;100710;;;;
2023/02/05 10:25:50;;;;;;;9.5;5.6;;;;;;;-2.4;71.1;100700;;;;
2023/02/05 10:36:50;;;;;;;26.5;12.6;;;;;;;-2.4;71.5;100710;;;;
2023/02/05 10:46:51;;;;;;;26.5;12.6;;;;;;;-2.2;69.9;100710;;;;
2023/02/05 10:56:50;;;;;;;26.5;12.6;;;;;;;-2.1;69.5;100710;;;;
2023/02/05 11:06:50;;;;;;;20.2;8.6;;;;;;;-1.9;69;100700;;;;
2023/02/05 11:17:50;;;;;;;20.2;8.6;;;;;;;-1.8;69.1;100700;;;;
2023/02/05 11:27:49;;;;;;;20.2;8.6;;;;;;;-1.6;68.6;100690;;;;
2023/02/05 11:38:50;;;;;;;9;4.4;;;;;;;-1.5;68.9;100690;;;;
2023/02/05 11:48:49;;;;;;;9;4.4;;;;;;;-1.5;72.3;100690;;;;
2023/02/05 11:58:50;;;;;;;9;4.4;;;;;;;-1.6;72.4;100690;;;;
2023/02/05 12:09:54;;;;;;;7.9;3.4;;;;;;;-1;71.1;100680;;;;
2023/02/05 12:20:49;;;;;;;7.9;3.4;;;;;;;-0.5;68.9;100670;;;;
2023/02/05 12:31:50;;;;;;;7.9;3.4;;;;;;;-0.1;67.2;100670;;;;
2023/02/05 12:41:49;;;;;;;7.5;3.9;;;;;;;0;65.8;100660;;;;
2023/02/05 12:51:50;;;;;;;7.5;3.9;;;;;;;-0.2;63.8;100650;;;;
2023/02/05 13:02:49;;;;;;;7.5;3.9;;;;;;;-0.4;63.3;100650;;;;
2023/02/05 13:13:50;;;;;;;9.9;3;;;;;;;-0.5;60.2;100650;;;;
2023/02/05 13:33:50;;;;;;;9.9;3;;;;;;;-1.4;61.6;100650;;;;
2023/02/05 13:44:50;;;;;;;4.3;2.6;;;;;;;-1.5;62.1;100660;;;;
2023/02/05 13:55:50;;;;;;;4.3;2.6;;;;;;;-1.6;63.2;100650;;;;
2023/02/05 14:06:49;;;;;;;13;5.5;;;;;;;-1.7;62.6;100660;;;;
2023/02/05 14:16:49;;;;;;;13;5.5;;;;;;;-2;63.4;100670;;;;
2023/02/05 14:27:54;;;;;;;13;5.5;;;;;;;-2.2;64.8;100670;;;;
2023/02/05 14:37:49;;;;;;;8.4;4.3;;;;;;;-2.4;65.6;100670;;;;
2023/02/05 14:47:49;;;;;;;8.4;4.3;;;;;;;-2.6;66.4;100670;;;;
2023/02/05 14:58:49;;;;;;;8.4;4.3;;;;;;;-2.8;67.3;100670;;;;
2023/02/05 15:08:49;;;;;;;6;3.4;;;;;;;-2.8;67.5;100680;;;;
2023/02/05 15:18:50;;;;;;;6;3.4;;;;;;;-3;68.5;100690;;;;
2023/02/05 15:29:51;;;;;;;6;3.4;;;;;;;-3.1;69.2;100690;;;;
2023/02/05 15:40:49;;;;;;;8.4;5.4;;;;;;;-3.1;69.6;100700;;;;
2023/02/05 15:51:49;;;;;;;8.4;5.4;;;;;;;-3.2;70.2;100700;;;;
2023/02/05 16:01:49;;;;;;;8.4;5.4;;;;;;;-3.2;70.7;100710;;;;
2023/02/05 16:12:49;;;;;;;11.1;5.3;;;;;;;-3.2;71.3;100710;;;;
2023/02/05 16:22:51;;;;;;;11.1;5.3;;;;;;;-3.2;71.4;100700;;;;
2023/02/05 16:32:49;;;;;;;11.1;5.3;;;;;;;-3.3;71.6;100710;;;;
2023/02/05 16:43:50;;;;;;;9.2;6;;;;;;;-3.4;72.3;100710;;;;
2023/02/05 16:53:49;;;;;;;9.2;6;;;;;;;-3.5;72.6;100720;;;;
2023/02/05 17:04:49;;;;;;;8.6;5.3;;;;;;;-3.4;73;100730;;;;
2023/02/05 17:15:49;;;;;;;8.6;5.3;;;;;;;-3.4;73.1;100740;;;;
2023/02/05 17:25:50;;;;;;;8.6;5.3;;;;;;;-3.4;73.2;100750;;;;
2023/02/05 17:36:50;;;;;;;13.2;7.3;;;;;;;-3.4;73.6;100750;;;;
2023/02/05 17:46:49;;;;;;;13.2;7.3;;;;;;;-3.4;73.8;100760;;;;
2023/02/05 17:57:49;;;;;;;13.2;7.3;;;;;;;-3.4;73.9;100760;;;;
2023/02/05 18:08:49;;;;;;;13.7;7.6;;;;;;;-3.4;73.9;100760;;;;
2023/02/05 18:19:49;;;;;;;13.7;7.6;;;;;;;-3.2;74.2;100770;;;;
2023/02/05 18:30:49;;;;;;;13.7;7.6;;;;;;;-3.3;74.4;100770;;;;
2023/02/05 18:40:49;;;;;;;14.3;9.9;;;;;;;-3.3;74.7;100780;;;;
2023/02/05 18:51:49;;;;;;;14.3;9.9;;;;;;;-3.3;74.6;100790;;;;
2023/02/05 19:01:49;;;;;;;14.3;9.9;;;;;;;-3.3;74.6;100800;;;;
2023/02/05 19:11:49;;;;;;;18.8;11.6;;;;;;;-3.2;74.7;100810;;;;
2023/02/05 19:22:49;;;;;;;18.8;11.6;;;;;;;-3.4;75.3;100800;;;;
2023/02/05 19:32:49;;;;;;;18.8;11.6;;;;;;;-3.4;75.9;100810;;;;
2023/02/05 19:43:49;;;;;;;35.3;18.8;;;;;;;-3.5;76.4;100810;;;;
2023/02/05 19:53:49;;;;;;;35.3;18.8;;;;;;;-3.4;76.8;100800;;;;
2023/02/05 20:03:49;;;;;;;35.3;18.8;;;;;;;-3.4;77;100810;;;;
2023/02/05 20:13:49;;;;;;;32.2;17.4;;;;;;;-3.5;77.8;100810;;;;
2023/02/05 20:24:49;;;;;;;32.2;17.4;;;;;;;-3.6;78.2;100820;;;;
2023/02/05 20:34:49;;;;;;;25.3;16.6;;;;;;;-3.6;78.9;100810;;;;
2023/02/05 20:44:49;;;;;;;25.3;16.6;;;;;;;-3.6;79.5;100830;;;;
2023/02/05 20:55:50;;;;;;;25.3;16.6;;;;;;;-3.5;79.5;100850;;;;
2023/02/05 21:05:49;;;;;;;29.1;14.3;;;;;;;-3.6;79.5;100860;;;;
2023/02/05 21:16:49;;;;;;;29.1;14.3;;;;;;;-3.5;79.8;100860;;;;
2023/02/05 21:26:49;;;;;;;29.1;14.3;;;;;;;-3.4;79.7;100860;;;;
2023/02/05 21:37:49;;;;;;;26.9;14.8;;;;;;;-3.5;79.9;100870;;;;
2023/02/05 21:48:49;;;;;;;26.9;14.8;;;;;;;-3.5;80.2;100890;;;;
2023/02/05 21:58:49;;;;;;;26.9;14.8;;;;;;;-3.5;80.4;100910;;;;
2023/02/05 22:09:49;;;;;;;41.8;22.8;;;;;;;-3.5;80.3;100920;;;;
2023/02/05 22:20:49;;;;;;;41.8;22.8;;;;;;;-3.5;80.5;100930;;;;
2023/02/05 22:31:49;;;;;;;41.8;22.8;;;;;;;-3.4;80.7;100940;;;;
2023/02/05 22:42:49;;;;;;;47.1;23.1;;;;;;;-3.4;80.7;100920;;;;
2023/02/05 22:53:49;;;;;;;47.1;23.1;;;;;;;-3.3;80.5;100920;;;;
2023/02/05 23:03:50;;;;;;;34.8;18.8;;;;;;;-3.4;80.6;100930;;;;
2023/02/05 23:14:49;;;;;;;34.8;18.8;;;;;;;-3.3;80.7;100930;;;;
2023/02/05 23:25:51;;;;;;;34.8;18.8;;;;;;;-3.3;80.7;100940;;;;
2023/02/05 23:35:49;;;;;;;34.6;20.5;;;;;;;-3.3;80.6;100940;;;;
2023/02/05 23:45:49;;;;;;;34.6;20.5;;;;;;;-3.3;80.4;100950;;;;
2023/02/05 23:56:49;;;;;;;34.6;20.5;;;;;;;-3.3;80.7;100960;;;;
